Time;durP1;ratioP1;P1;durP2;ratioP2;P2;SDS_P1;SDS_P2;PMS_P1;PMS_P2;Temp;Humidity;BMP_temperature;BMP_pressure;BME280_temperature;BME280_humidity;BME280_pressure;Samples;Min_cycle;Max_cycle;Signal;HPM_P1;HPM_P2
2022/04/10 00:00:48;;;;;;;22.55;9.20;;;;;;;2.77;100.00;101909.78;5205122;28;20028;-72
2022/04/10 00:03:19;;;;;;;21.95;8.80;;;;;;;2.83;100.00;101919.19;5205328;28;20116;-72
2022/04/10 00:05:51;;;;;;;19.20;9.20;;;;;;;2.86;100.00;101913.69;5204839;28;20021;-72
2022/04/10 00:08:21;;;;;;;18.17;8.00;;;;;;;2.90;100.00;101917.00;5204728;28;20200;-72
2022/04/10 00:10:52;;;;;;;19.55;7.68;;;;;;;2.94;100.00;101918.53;5206065;28;20119;-72
2022/04/10 00:13:22;;;;;;;20.70;8.55;;;;;;;2.98;100.00;101920.06;5206342;28;20520;-72
2022/04/10 00:15:53;;;;;;;23.70;8.27;;;;;;;2.96;100.00;101906.03;5204683;28;20108;-72
2022/04/10 00:18:23;;;;;;;14.68;8.13;;;;;;;2.94;100.00;101907.94;5204970;28;20021;-72
2022/04/10 00:20:54;;;;;;;16.60;7.80;;;;;;;2.91;100.00;101908.09;5201657;28;20040;-72
2022/04/10 00:23:24;;;;;;;12.93;7.57;;;;;;;2.89;100.00;101896.75;5205178;28;20021;-72
2022/04/10 00:25:55;;;;;;;16.38;8.30;;;;;;;2.89;100.00;101904.72;5204222;28;20486;-72
2022/04/10 00:28:25;;;;;;;16.88;7.35;;;;;;;2.90;100.00;101906.41;5204674;28;20032;-72
2022/04/10 00:30:56;;;;;;;19.40;7.15;;;;;;;2.90;100.00;101903.75;5204547;28;20041;-72
2022/04/10 00:33:26;;;;;;;15.05;7.63;;;;;;;2.91;100.00;101898.34;5200433;28;20034;-72
2022/04/10 00:35:57;;;;;;;17.85;7.38;;;;;;;2.93;100.00;101900.94;5196698;28;20079;-72
2022/04/10 00:38:27;;;;;;;11.98;7.38;;;;;;;2.94;100.00;101903.50;5204447;28;20386;-73
2022/04/10 00:40:58;;;;;;;14.90;7.75;;;;;;;2.96;100.00;101901.63;5204439;28;20025;-73
2022/04/10 00:43:32;;;;;;;13.70;7.43;;;;;;;2.98;100.00;101901.50;5204480;28;20021;-72
2022/04/10 00:46:03;;;;;;;17.48;7.88;;;;;;;3.01;100.00;101899.53;5204024;28;20036;-71
2022/04/10 00:48:33;;;;;;;14.95;7.35;;;;;;;3.03;100.00;101899.44;5204106;28;20479;-72
2022/04/10 00:53:54;;;;;;;12.88;7.82;;;;;;;2.99;100.00;101898.75;5203840;28;20021;-73
2022/04/10 00:56:24;;;;;;;16.23;7.43;;;;;;;3.00;100.00;101896.97;5203548;28;20090;-71
2022/04/10 00:58:55;;;;;;;16.75;8.18;;;;;;;2.99;100.00;101906.72;5204229;28;20026;-71
2022/04/10 01:01:25;;;;;;;14.00;7.45;;;;;;;3.03;100.00;101910.03;5204161;28;20036;-71
2022/04/10 01:03:56;;;;;;;16.70;8.20;;;;;;;3.04;100.00;101907.28;5205115;28;20554;-71
2022/04/10 01:06:27;;;;;;;17.23;8.05;;;;;;;3.04;100.00;101898.50;5204107;28;20554;-72
2022/04/10 01:08:57;;;;;;;13.48;7.25;;;;;;;2.98;100.00;101899.72;5204375;28;20060;-72
2022/04/10 01:11:28;;;;;;;16.90;7.70;;;;;;;2.93;100.00;101895.63;5204323;28;20033;-72
2022/04/10 01:14:00;;;;;;;19.67;8.38;;;;;;;2.90;100.00;101904.59;5204183;28;20037;-72
2022/04/10 01:16:31;;;;;;;16.42;7.78;;;;;;;2.89;100.00;101905.56;5203830;28;20098;-72
2022/04/10 01:19:04;;;;;;;18.00;8.15;;;;;;;2.90;100.00;101906.41;5203631;28;20104;-72
2022/04/10 01:21:39;;;;;;;14.88;7.47;;;;;;;2.92;100.00;101908.03;5204058;28;20395;-72
2022/04/10 01:24:11;;;;;;;16.10;8.30;;;;;;;2.92;100.00;101909.84;5203904;28;20029;-72
2022/04/10 01:26:42;;;;;;;14.95;8.13;;;;;;;2.92;100.00;101909.84;5203951;28;20033;-72
2022/04/10 01:29:14;;;;;;;15.30;7.78;;;;;;;2.89;100.00;101910.00;5203775;28;20033;-72
2022/04/10 01:31:46;;;;;;;16.42;8.82;;;;;;;2.85;100.00;101909.31;5203647;28;20591;-72
2022/04/10 01:34:17;;;;;;;14.93;7.90;;;;;;;2.82;100.00;101912.19;5198383;28;20033;-72
2022/04/10 01:36:48;;;;;;;17.88;9.38;;;;;;;2.75;100.00;101911.66;5198036;28;20025;-72
2022/04/10 01:39:19;;;;;;;18.67;8.52;;;;;;;2.69;100.00;101913.81;5203895;28;20494;-72
2022/04/10 01:41:51;;;;;;;16.73;9.10;;;;;;;2.60;100.00;101912.56;5204016;28;20048;-73
2022/04/10 01:44:21;;;;;;;20.23;8.75;;;;;;;2.50;100.00;101906.94;5203695;28;20026;-72
2022/04/10 01:46:52;;;;;;;17.58;8.38;;;;;;;2.38;100.00;101906.81;5203749;28;20148;-72
2022/04/10 01:49:22;;;;;;;21.73;7.75;;;;;;;2.18;100.00;101897.34;5203841;28;20526;-72
2022/04/10 01:51:53;;;;;;;20.45;8.52;;;;;;;2.04;100.00;101892.81;5203657;28;20033;-71
2022/04/10 01:54:24;;;;;;;18.27;9.95;;;;;;;1.95;100.00;101901.25;5203451;28;20410;-72
2022/04/10 01:56:57;;;;;;;21.77;9.85;;;;;;;1.87;100.00;101900.84;5203546;28;20101;-70
2022/04/10 01:59:29;;;;;;;22.42;9.20;;;;;;;1.81;100.00;101907.34;5203682;28;20114;-70
2022/04/10 02:02:01;;;;;;;16.60;9.43;;;;;;;1.75;100.00;101902.34;5203634;28;20025;-71
2022/04/10 02:04:33;;;;;;;19.60;8.77;;;;;;;1.69;100.00;101900.03;5206511;28;20032;-72
2022/04/10 02:07:04;;;;;;;20.88;10.48;;;;;;;1.77;100.00;101903.13;5207463;28;20478;-72
2022/04/10 02:09:34;;;;;;;19.02;8.80;;;;;;;1.80;100.00;101901.16;5207680;28;20033;-72
2022/04/10 02:12:05;;;;;;;19.80;9.15;;;;;;;1.74;100.00;101898.00;5207687;28;20095;-72
2022/04/10 02:14:36;;;;;;;19.27;9.25;;;;;;;1.63;100.00;101905.69;5207350;28;20029;-72
2022/04/10 02:17:07;;;;;;;22.15;9.73;;;;;;;1.52;100.00;101909.75;5207515;28;20592;-72
2022/04/10 02:19:37;;;;;;;21.38;8.35;;;;;;;1.43;100.00;101906.75;5207405;28;20131;-71
2022/04/10 02:22:08;;;;;;;15.95;8.75;;;;;;;1.32;100.00;101907.31;5204519;28;20033;-72
2022/04/10 02:24:38;;;;;;;17.75;9.80;;;;;;;1.20;100.00;101908.78;5207354;28;20096;-72
2022/04/10 02:27:09;;;;;;;20.08;8.50;;;;;;;1.02;100.00;101894.75;5207187;28;20091;-71
2022/04/10 02:29:39;;;;;;;20.67;9.40;;;;;;;0.91;100.00;101898.91;5207378;28;20036;-70
2022/04/10 02:32:10;;;;;;;20.52;10.38;;;;;;;0.80;100.00;101901.22;5207475;28;20029;-70
2022/04/10 02:34:41;;;;;;;21.35;10.63;;;;;;;0.70;100.00;101896.41;5198909;28;20022;-70
2022/04/10 02:37:11;;;;;;;26.13;11.32;;;;;;;0.65;100.00;101903.72;5204448;28;20020;-70
2022/04/10 02:39:42;;;;;;;23.15;11.70;;;;;;;0.62;100.00;101893.28;5207069;28;20442;-70
2022/04/10 02:42:13;;;;;;;27.77;12.57;;;;;;;0.64;100.00;101898.47;5207075;28;20049;-70
2022/04/10 02:44:43;;;;;;;22.65;10.25;;;;;;;0.70;100.00;101898.16;5206632;28;20029;-71
2022/04/10 02:47:14;;;;;;;21.80;10.90;;;;;;;0.91;100.00;101901.53;5206769;28;20509;-72
2022/04/10 02:49:44;;;;;;;23.83;10.23;;;;;;;0.93;100.00;101904.94;5206916;28;20036;-72
2022/04/10 02:52:15;;;;;;;26.63;11.25;;;;;;;0.92;100.00;101914.66;5206969;28;20126;-71
2022/04/10 02:54:45;;;;;;;26.92;11.07;;;;;;;0.84;100.00;101915.97;5206388;28;20022;-71
2022/04/10 02:57:16;;;;;;;23.48;10.82;;;;;;;0.74;100.00;101915.59;5206725;28;20036;-71
2022/04/10 02:59:46;;;;;;;23.65;10.20;;;;;;;0.68;100.00;101922.03;5206877;28;20025;-71
2022/04/10 03:02:17;;;;;;;22.40;10.93;;;;;;;0.65;100.00;101926.59;5206632;28;20071;-71
2022/04/10 03:04:47;;;;;;;20.00;10.00;;;;;;;0.54;100.00;101923.63;5206314;28;20497;-70
2022/04/10 03:07:18;;;;;;;19.77;10.18;;;;;;;0.44;100.00;101937.28;5206376;28;20025;-70
2022/04/10 03:09:48;;;;;;;22.05;9.50;;;;;;;0.33;100.00;101920.28;5206206;28;20057;-71
2022/04/10 03:12:19;;;;;;;20.55;10.07;;;;;;;0.26;100.00;101938.19;5206546;28;20053;-71
2022/04/10 03:14:50;;;;;;;26.02;10.32;;;;;;;0.21;100.00;101932.28;5205572;28;20056;-71
2022/04/10 03:17:21;;;;;;;26.70;11.73;;;;;;;0.16;100.00;101927.22;5206183;28;20017;-71
2022/04/10 03:19:51;;;;;;;26.67;11.05;;;;;;;0.11;100.00;101925.72;5206079;28;20025;-71
2022/04/10 03:22:22;;;;;;;24.50;11.13;;;;;;;0.08;100.00;101932.00;5203541;28;20057;-71
2022/04/10 03:24:52;;;;;;;27.27;11.93;;;;;;;0.09;100.00;101936.34;5206040;28;20026;-72
2022/04/10 03:27:23;;;;;;;28.92;14.30;;;;;;;0.10;100.00;101934.56;5205956;28;20057;-70
2022/04/10 03:29:53;;;;;;;31.92;12.63;;;;;;;0.12;100.00;101936.19;5206742;28;20025;-70
2022/04/10 03:32:24;;;;;;;31.83;12.07;;;;;;;0.14;100.00;101942.25;5205686;28;20137;-71
2022/04/10 03:34:54;;;;;;;23.90;11.18;;;;;;;0.31;100.00;101937.97;5195699;28;20451;-70
2022/04/10 03:37:26;;;;;;;28.15;11.68;;;;;;;0.41;100.00;101940.09;5205015;28;20036;-71
2022/04/10 03:39:57;;;;;;;27.75;11.32;;;;;;;0.41;100.00;101940.09;5205906;28;20390;-71
2022/04/10 03:42:27;;;;;;;22.85;11.00;;;;;;;0.36;100.00;101939.47;5206222;28;20479;-71
2022/04/10 03:44:58;;;;;;;28.85;12.48;;;;;;;0.30;100.00;101945.00;5205379;28;20342;-71
2022/04/10 03:47:28;;;;;;;22.65;11.77;;;;;;;0.25;100.00;101944.38;5205863;28;20022;-71
2022/04/10 03:49:59;;;;;;;23.55;11.23;;;;;;;0.21;100.00;101943.69;5205555;28;20021;-72
2022/04/10 03:52:30;;;;;;;22.75;10.52;;;;;;;0.18;100.00;101950.88;5205791;28;20363;-71
2022/04/10 03:55:00;;;;;;;27.75;12.35;;;;;;;0.10;100.00;101940.72;5205361;28;20029;-71
2022/04/10 03:57:31;;;;;;;31.83;10.88;;;;;;;0.05;100.00;101949.75;5205888;28;20017;-71
2022/04/10 04:00:02;;;;;;;21.40;10.02;;;;;;;-0.01;100.00;101948.25;5205665;28;20021;-70
2022/04/10 04:02:32;;;;;;;25.90;11.23;;;;;;;-0.06;100.00;101947.59;5205868;28;20112;-71
2022/04/10 04:05:05;;;;;;;23.65;11.15;;;;;;;-0.10;100.00;101949.56;5205112;28;20021;-70
2022/04/10 04:07:36;;;;;;;25.77;11.55;;;;;;;-0.13;100.00;101959.38;5205414;28;20033;-70
2022/04/10 04:10:07;;;;;;;29.67;13.27;;;;;;;-0.13;100.00;101954.97;5204913;28;20033;-71
2022/04/10 04:12:38;;;;;;;34.42;14.25;;;;;;;-0.14;100.00;101952.41;5205240;28;20497;-71
2022/04/10 04:15:11;;;;;;;29.50;12.93;;;;;;;-0.18;100.00;101956.09;5205010;28;20071;-71
2022/04/10 04:17:41;;;;;;;22.45;11.30;;;;;;;-0.26;100.00;101952.00;5205519;28;20021;-71
2022/04/10 04:20:13;;;;;;;28.15;12.68;;;;;;;-0.34;100.00;101951.53;5204986;28;20453;-71
2022/04/10 04:22:43;;;;;;;26.30;12.02;;;;;;;-0.39;100.00;101961.41;5202198;28;20598;-70
2022/04/10 04:25:14;;;;;;;31.13;13.93;;;;;;;-0.24;100.00;101961.66;5204534;28;20037;-71
2022/04/10 04:27:45;;;;;;;24.52;12.27;;;;;;;-0.22;100.00;101959.78;5203926;28;20101;-71
2022/04/10 04:30:15;;;;;;;34.83;14.00;;;;;;;-0.25;100.00;101960.81;5204782;28;20025;-71
2022/04/10 04:32:46;;;;;;;28.50;13.23;;;;;;;-0.28;100.00;101963.56;5204675;28;20479;-70
2022/04/10 04:35:16;;;;;;;27.27;12.32;;;;;;;-0.27;100.00;101963.50;5194181;28;20030;-70
2022/04/10 04:37:47;;;;;;;38.65;14.90;;;;;;;-0.28;100.00;101964.41;5204823;28;20028;-70
2022/04/10 04:40:17;;;;;;;28.88;13.82;;;;;;;-0.32;100.00;101965.47;5204583;28;20441;-70
2022/04/10 04:42:48;;;;;;;29.92;13.52;;;;;;;-0.38;100.00;101972.81;5204767;28;20026;-70
2022/04/10 04:45:19;;;;;;;28.67;12.65;;;;;;;-0.48;100.00;101964.47;5204211;28;20049;-70
2022/04/10 04:47:49;;;;;;;29.60;13.48;;;;;;;-0.52;100.00;101981.34;5204606;28;20037;-70
2022/04/10 04:50:20;;;;;;;31.23;14.20;;;;;;;-0.57;100.00;101976.25;5204503;28;20030;-70
2022/04/10 04:52:50;;;;;;;31.02;13.48;;;;;;;-0.59;100.00;101977.25;5204837;28;20399;-69
2022/04/10 04:55:21;;;;;;;37.13;14.43;;;;;;;-0.60;100.00;101978.19;5204194;28;20022;-69
2022/04/10 04:57:51;;;;;;;27.73;14.02;;;;;;;-0.63;100.00;101975.69;5203971;28;20052;-69
2022/04/10 05:00:22;;;;;;;33.05;14.57;;;;;;;-0.63;100.00;101987.06;5204360;28;20104;-70
2022/04/10 05:02:52;;;;;;;29.85;13.40;;;;;;;-0.63;100.00;101980.94;5204722;28;20553;-70
2022/04/10 05:05:24;;;;;;;38.38;15.65;;;;;;;-0.60;100.00;101988.75;5201067;28;20021;-69
2022/04/10 05:07:55;;;;;;;40.60;16.27;;;;;;;-0.53;100.00;101996.28;5204351;28;20032;-70
2022/04/10 05:10:25;;;;;;;33.60;16.38;;;;;;;-0.44;100.00;101992.41;5204083;28;20040;-69
2022/04/10 05:12:56;;;;;;;35.90;15.05;;;;;;;-0.38;100.00;101993.91;5204236;28;20017;-69
2022/04/10 05:15:26;;;;;;;27.52;14.20;;;;;;;-0.36;100.00;101998.19;5203937;28;20235;-69
2022/04/10 05:17:56;;;;;;;37.08;15.45;;;;;;;-0.36;100.00;102000.81;5204182;28;20450;-69
2022/04/10 05:20:27;;;;;;;34.03;15.02;;;;;;;-0.33;100.00;102005.13;5204189;28;20030;-69
2022/04/10 05:22:58;;;;;;;36.88;14.43;;;;;;;-0.32;100.00;102012.09;5203861;28;20033;-69
2022/04/10 05:25:28;;;;;;;27.63;13.18;;;;;;;-0.32;100.00;102012.94;5203924;28;20057;-69
2022/04/10 05:27:59;;;;;;;32.63;13.85;;;;;;;-0.30;100.00;102010.25;5204203;28;20028;-70
2022/04/10 05:30:29;;;;;;;30.75;14.20;;;;;;;-0.22;100.00;102012.53;5203816;28;20486;-68
2022/04/10 05:33:00;;;;;;;30.60;13.27;;;;;;;-0.19;100.00;102015.06;5203912;28;20032;-69
2022/04/10 05:35:30;;;;;;;29.98;12.82;;;;;;;-0.21;100.00;102019.53;5192596;28;20080;-69
2022/04/10 05:38:01;;;;;;;30.80;12.75;;;;;;;-0.22;100.00;102033.66;5203733;28;20376;-69
2022/04/10 05:40:32;;;;;;;27.10;11.13;;;;;;;-0.28;100.00;102033.00;5203794;28;20029;-70
2022/04/10 05:43:02;;;;;;;24.33;11.93;;;;;;;-0.33;100.00;102034.97;5203956;28;20501;-70
2022/04/10 05:45:33;;;;;;;27.80;12.80;;;;;;;-0.31;100.00;102024.34;5203738;28;20433;-69
2022/04/10 05:48:03;;;;;;;27.70;12.73;;;;;;;-0.28;100.00;102042.69;5203509;28;20460;-68
2022/04/10 05:50:34;;;;;;;40.83;13.15;;;;;;;-0.23;100.00;102043.34;5190610;28;20064;-70
2022/04/10 05:53:05;;;;;;;29.80;13.30;;;;;;;-0.15;100.00;102035.94;5203810;28;20033;-70
2022/04/10 05:55:35;;;;;;;30.15;12.70;;;;;;;0.22;100.00;102047.47;5203675;28;20022;-69
2022/04/10 05:58:06;;;;;;;35.80;14.30;;;;;;;0.91;100.00;102036.28;5203570;28;20489;-69
2022/04/10 06:00:37;;;;;;;34.28;12.93;;;;;;;1.61;100.00;102043.31;5203635;28;20025;-69
2022/04/10 06:03:07;;;;;;;19.17;10.98;;;;;;;2.18;100.00;102045.59;5203948;28;20056;-70
2022/04/10 06:05:37;;;;;;;25.50;11.20;;;;;;;2.57;100.00;102056.66;5200243;28;20483;-69
2022/04/10 06:08:08;;;;;;;15.40;7.78;;;;;;;2.72;100.00;102049.66;5203551;28;20049;-70
2022/04/10 06:10:38;;;;;;;14.20;7.90;;;;;;;2.63;100.00;102052.81;5203512;28;20079;-70
2022/04/10 06:13:10;;;;;;;16.65;8.20;;;;;;;2.69;100.00;102054.25;5203908;28;20104;-69
2022/04/10 06:15:40;;;;;;;16.33;8.57;;;;;;;2.97;100.00;102056.22;5203214;28;20025;-69
2022/04/10 06:18:11;;;;;;;12.73;7.45;;;;;;;3.31;100.00;102063.94;5203869;28;20072;-69
2022/04/10 06:20:42;;;;;;;19.17;8.13;;;;;;;3.87;100.00;102059.69;5201152;28;20096;-70
2022/04/10 06:23:12;;;;;;;15.27;9.40;;;;;;;4.63;100.00;102066.47;5202822;28;20541;-69
2022/04/10 06:25:43;;;;;;;18.77;9.63;;;;;;;5.33;100.00;102053.03;5202998;28;20029;-70
2022/04/10 06:28:13;;;;;;;17.20;9.40;;;;;;;6.11;100.00;102061.00;5203667;28;20025;-70
2022/04/10 06:30:45;;;;;;;16.90;8.02;;;;;;;6.43;100.00;102064.91;5203248;28;20072;-70
2022/04/10 06:33:15;;;;;;;17.05;9.18;;;;;;;6.80;100.00;102064.91;5201257;28;20030;-70
2022/04/10 06:35:46;;;;;;;16.30;10.20;;;;;;;7.58;100.00;102074.22;5194520;28;20030;-70
2022/04/10 06:38:16;;;;;;;15.00;8.32;;;;;;;7.87;100.00;102072.00;5203200;28;20020;-70
2022/04/10 06:40:48;;;;;;;18.63;10.25;;;;;;;8.29;100.00;102068.66;5203410;28;20049;-70
2022/04/10 06:43:20;;;;;;;15.93;8.75;;;;;;;8.48;100.00;102075.22;5200520;28;20025;-67
2022/04/10 06:45:50;;;;;;;17.02;8.70;;;;;;;8.69;100.00;102072.66;5190472;28;20025;-70
2022/04/10 06:48:21;;;;;;;21.58;9.15;;;;;;;8.69;100.00;102076.19;5204340;28;21144;-70
2022/04/10 06:50:51;;;;;;;18.25;8.65;;;;;;;8.99;100.00;102078.19;5202253;28;20029;-70
2022/04/10 06:53:22;;;;;;;16.25;8.15;;;;;;;8.95;100.00;102084.75;5204435;28;20108;-70
2022/04/10 06:55:52;;;;;;;15.43;8.20;;;;;;;8.89;100.00;102077.25;5204555;28;20042;-70
2022/04/10 06:58:23;;;;;;;124.03;75.50;;;;;;;8.95;100.00;102079.41;5204140;28;20387;-71
2022/04/10 07:00:53;;;;;;;116.60;68.57;;;;;;;9.28;100.00;102089.16;5204294;28;20044;-70
2022/04/10 07:03:24;;;;;;;33.53;19.15;;;;;;;9.50;100.00;102088.22;5204370;28;20064;-70
2022/04/10 07:05:54;;;;;;;19.75;9.35;;;;;;;10.53;100.00;102096.31;5202502;28;20025;-70
2022/04/10 07:08:26;;;;;;;17.85;9.05;;;;;;;10.45;100.00;102093.47;5203773;28;20036;-70
2022/04/10 07:10:56;;;;;;;23.77;10.80;;;;;;;10.68;100.00;102098.63;5204058;28;20033;-71
2022/04/10 07:13:28;;;;;;;20.42;9.63;;;;;;;10.90;100.00;102101.09;5203813;28;20037;-70
2022/04/10 07:15:58;;;;;;;18.75;9.32;;;;;;;10.74;100.00;102098.91;5203863;28;20025;-70
2022/04/10 07:18:29;;;;;;;19.55;9.40;;;;;;;10.83;100.00;102099.94;5204044;28;20060;-70
2022/04/10 07:20:59;;;;;;;16.83;8.38;;;;;;;11.30;100.00;102097.50;5201123;28;20065;-70
2022/04/10 07:26:19;;;;;;;17.95;7.97;;;;;;;12.29;100.00;102106.13;5191365;28;20037;-71
2022/04/10 07:28:49;;;;;;;14.95;8.25;;;;;;;11.58;100.00;102104.69;5203141;28;20302;-71
2022/04/10 07:31:19;;;;;;;16.95;9.18;;;;;;;10.59;100.00;102111.00;5203642;28;20061;-71
2022/04/10 07:33:50;;;;;;;19.75;8.65;;;;;;;10.31;100.00;102107.25;5200343;28;20044;-71
2022/04/10 07:36:20;;;;;;;16.13;8.45;;;;;;;10.86;100.00;102107.72;5195483;28;20030;-70
2022/04/10 07:38:51;;;;;;;21.10;8.50;;;;;;;11.37;100.00;102110.19;5202867;28;20025;-70
2022/04/10 07:41:21;;;;;;;15.10;8.23;;;;;;;11.59;100.00;102111.75;5203172;28;20541;-71
2022/04/10 07:43:52;;;;;;;16.95;8.27;;;;;;;11.57;100.00;102111.06;5203321;28;20459;-71
2022/04/10 07:49:11;;;;;;;15.63;8.05;;;;;;;12.18;100.00;102116.06;5195082;28;20042;-71
2022/04/10 07:51:42;;;;;;;13.75;7.18;;;;;;;13.21;100.00;102112.34;5202918;28;20188;-71
2022/04/10 07:54:12;;;;;;;17.40;7.60;;;;;;;13.61;100.00;102124.53;5202962;28;20603;-70
2022/04/10 07:56:43;;;;;;;17.08;9.55;;;;;;;13.36;100.00;102119.91;5201786;28;20025;-72
2022/04/10 07:59:15;;;;;;;27.80;12.57;;;;;;;13.53;100.00;102124.44;5202065;28;20060;-71
2022/04/10 08:01:46;;;;;;;14.00;6.63;;;;;;;13.39;100.00;102122.28;5202991;28;20463;-71
2022/04/10 08:04:16;;;;;;;10.52;5.57;;;;;;;15.26;74.54;102139.66;5202853;28;20075;-71
2022/04/10 08:06:47;;;;;;;13.55;5.10;;;;;;;15.33;69.20;102131.72;5210688;28;20029;-71
2022/04/10 08:09:18;;;;;;;11.43;5.28;;;;;;;15.30;71.73;102137.44;5211002;28;20064;-71
2022/04/10 08:11:48;;;;;;;14.25;4.75;;;;;;;13.78;88.82;102132.75;5213809;28;20028;-71
2022/04/10 08:14:19;;;;;;;15.65;5.65;;;;;;;13.70;85.23;102133.53;5215026;28;20033;-72
2022/04/10 08:16:49;;;;;;;13.00;5.03;;;;;;;13.33;89.54;102133.69;5211439;28;20025;-71
2022/04/10 08:19:20;;;;;;;17.83;5.43;;;;;;;13.32;93.95;102137.38;5213584;28;20059;-72
2022/04/10 08:21:50;;;;;;;9.95;4.50;;;;;;;15.75;68.00;102137.00;5215047;28;20067;-71
2022/04/10 08:24:21;;;;;;;12.25;4.63;;;;;;;16.03;66.42;102140.22;5210317;28;20053;-72
2022/04/10 08:26:51;;;;;;;9.15;4.15;;;;;;;15.73;61.65;102139.06;5213923;28;20051;-71
2022/04/10 08:29:22;;;;;;;4.70;2.38;;;;;;;15.74;55.83;102137.19;5205539;28;20026;-72
2022/04/10 08:31:52;;;;;;;6.70;2.75;;;;;;;15.53;55.89;102138.50;5205667;28;20470;-71
2022/04/10 08:34:23;;;;;;;7.65;2.97;;;;;;;16.08;53.83;102138.88;5204711;28;20021;-71
2022/04/10 08:36:53;;;;;;;7.88;3.92;;;;;;;16.02;57.40;102151.22;5205011;28;20301;-72
2022/04/10 08:39:25;;;;;;;6.88;2.78;;;;;;;15.91;50.68;102140.72;5207580;28;20029;-72
2022/04/10 08:42:00;;;;;;;4.97;2.38;;;;;;;15.30;54.60;102148.25;5211842;28;20487;-72
2022/04/10 08:44:32;;;;;;;7.40;2.75;;;;;;;15.68;50.63;102151.41;5213210;28;20080;-72
2022/04/10 08:47:03;;;;;;;7.28;2.95;;;;;;;15.64;51.85;102145.47;5212852;28;20045;-72
2022/04/10 08:49:35;;;;;;;4.25;2.22;;;;;;;15.35;52.81;102162.13;5211878;28;20029;-72
2022/04/10 08:52:06;;;;;;;7.70;3.10;;;;;;;15.02;51.21;102155.78;5212491;28;20021;-72
2022/04/10 08:54:37;;;;;;;7.22;3.05;;;;;;;14.44;59.79;102156.50;5210647;28;20033;-73
2022/04/10 08:57:07;;;;;;;7.43;2.90;;;;;;;14.08;63.23;102148.50;5213057;28;20040;-73
2022/04/10 08:59:38;;;;;;;7.00;2.70;;;;;;;14.70;63.00;102151.94;5205061;28;20531;-73
2022/04/10 09:02:10;;;;;;;8.63;2.65;;;;;;;15.10;60.78;102150.41;5212668;28;20510;-73
2022/04/10 09:04:41;;;;;;;8.73;3.05;;;;;;;15.01;63.30;102152.25;5209422;28;20021;-72
2022/04/10 09:07:12;;;;;;;10.20;3.47;;;;;;;14.63;58.53;102147.34;5206298;28;20037;-72
2022/04/10 09:09:52;;;;;;;8.63;3.38;;;;;;;14.80;59.94;102153.66;5211613;28;20106;-72
2022/04/10 09:12:23;;;;;;;6.70;2.70;;;;;;;16.17;54.39;102154.94;5209124;28;20516;-72
2022/04/10 09:15:03;;;;;;;8.23;3.38;;;;;;;15.63;64.63;102146.50;5203853;28;20056;-72
2022/04/10 09:17:33;;;;;;;6.80;3.28;;;;;;;15.60;63.44;102145.94;5212782;28;20018;-72
2022/04/10 09:20:04;;;;;;;10.27;3.97;;;;;;;15.82;66.18;102144.47;5207240;28;20039;-70
2022/04/10 09:22:36;;;;;;;7.75;3.13;;;;;;;17.34;51.01;102153.34;5209062;28;20085;-72
2022/04/10 09:25:22;;;;;;;8.73;3.78;;;;;;;16.22;59.70;102155.28;5209054;28;20053;-73
2022/04/10 09:27:53;;;;;;;8.80;3.40;;;;;;;16.01;59.47;102155.81;5205975;28;20034;-73
2022/04/10 09:30:34;;;;;;;12.35;3.45;;;;;;;15.62;59.42;102147.47;5204760;28;20075;-72
2022/04/10 09:33:05;;;;;;;9.68;3.45;;;;;;;15.58;60.28;102145.28;5202183;28;20631;-73
2022/04/10 09:35:52;;;;;;;7.95;3.50;;;;;;;14.52;55.18;102151.19;5206690;28;20025;-73
2022/04/10 09:38:43;;;;;;;8.52;3.10;;;;;;;14.19;55.44;102155.50;5207994;28;20312;-72
2022/04/10 09:41:13;;;;;;;7.30;3.53;;;;;;;13.85;57.49;102150.84;5211831;28;20033;-72
2022/04/10 09:43:44;;;;;;;8.40;2.85;;;;;;;14.22;54.14;102153.34;5202448;28;20025;-72
2022/04/10 09:46:14;;;;;;;4.85;2.88;;;;;;;14.10;56.32;102151.88;5208931;28;20391;-72
2022/04/10 09:48:45;;;;;;;7.85;3.78;;;;;;;14.08;58.60;102148.50;5212321;28;20025;-72
2022/04/10 09:51:15;;;;;;;6.40;3.33;;;;;;;13.74;56.34;102149.22;5212733;28;20221;-72
2022/04/10 09:54:02;;;;;;;6.95;3.30;;;;;;;13.66;55.23;102145.63;5214511;28;20048;-73
2022/04/10 09:56:33;;;;;;;8.25;3.25;;;;;;;14.11;59.51;102145.50;5211998;28;20041;-72
2022/04/10 09:59:05;;;;;;;6.63;3.15;;;;;;;15.37;55.85;102149.31;5210848;28;20383;-73
2022/04/10 10:01:35;;;;;;;9.63;3.50;;;;;;;14.96;54.51;102156.44;5207657;28;20017;-72
2022/04/10 10:04:06;;;;;;;8.90;3.88;;;;;;;14.29;55.41;102158.09;5204885;28;20040;-72
2022/04/10 10:06:38;;;;;;;10.95;3.63;;;;;;;14.06;58.06;102149.69;5211014;28;20505;-72
2022/04/10 10:09:09;;;;;;;8.35;3.28;;;;;;;13.97;56.20;102149.59;5201959;28;20079;-73
2022/04/10 10:11:41;;;;;;;7.47;3.53;;;;;;;12.89;59.81;102145.13;5204562;28;20041;-74
2022/04/10 10:14:12;;;;;;;12.32;3.45;;;;;;;13.42;60.40;102154.34;5211689;28;20017;-72
2022/04/10 10:16:44;;;;;;;7.03;3.10;;;;;;;14.09;54.83;102150.19;5210390;28;20374;-73
2022/04/10 10:19:16;;;;;;;7.75;3.42;;;;;;;14.24;52.59;102150.47;5208334;28;20033;-72
2022/04/10 10:21:46;;;;;;;7.63;3.03;;;;;;;14.21;56.71;102146.25;5203063;28;20022;-71
2022/04/10 10:24:20;;;;;;;8.48;3.60;;;;;;;14.42;53.22;102155.81;5207498;28;20024;-72
2022/04/10 10:27:15;;;;;;;7.28;3.78;;;;;;;14.45;66.51;102150.06;5214919;28;20084;-72
2022/04/10 10:29:55;;;;;;;7.47;3.83;;;;;;;15.02;60.89;102147.69;5212638;28;20163;-72
2022/04/10 10:33:03;;;;;;;7.03;3.78;;;;;;;15.40;66.49;102151.66;5209308;28;20039;-72
2022/04/10 10:35:38;;;;;;;9.23;3.80;;;;;;;15.76;58.66;102149.56;5204876;28;20445;-72
2022/04/10 10:38:36;;;;;;;7.07;3.47;;;;;;;15.03;57.83;102146.69;5204238;28;20104;-72
2022/04/10 10:41:16;;;;;;;10.13;4.20;;;;;;;15.74;63.85;102134.47;5209897;28;20020;-72
2022/04/10 10:43:48;;;;;;;7.45;3.70;;;;;;;16.07;57.75;102137.19;5213283;28;20301;-72
2022/04/10 10:46:54;;;;;;;6.28;4.07;;;;;;;15.96;53.37;102128.38;5214150;28;20044;-73
2022/04/10 10:49:28;;;;;;;8.82;4.38;;;;;;;16.21;55.73;102137.31;5208938;28;20033;-72
2022/04/10 10:52:05;;;;;;;5.30;3.85;;;;;;;16.00;54.70;102143.25;5205378;28;20502;-72
2022/04/10 10:54:44;;;;;;;8.25;4.80;;;;;;;15.69;52.75;102132.28;5212066;28;20036;-72
2022/04/10 10:57:52;;;;;;;11.88;4.97;;;;;;;15.29;54.14;102131.19;5214967;28;20473;-73
2022/04/10 11:00:22;;;;;;;12.48;4.55;;;;;;;15.15;56.90;102131.84;5211168;28;20033;-72
2022/04/10 11:02:54;;;;;;;93.38;9.45;;;;;;;15.72;54.27;102123.84;5216460;28;20559;-72
2022/04/10 11:05:24;;;;;;;16.95;9.52;;;;;;;15.95;48.19;102125.84;5209372;28;20418;-72
2022/04/10 11:08:12;;;;;;;21.60;5.50;;;;;;;16.00;46.81;102121.59;5210728;28;20022;-72
2022/04/10 11:11:03;;;;;;;38.83;6.00;;;;;;;15.83;52.35;102117.25;5213735;28;20037;-73
2022/04/10 11:13:52;;;;;;;18.38;5.38;;;;;;;15.27;56.45;102119.72;5210586;28;20032;-72
2022/04/10 11:16:23;;;;;;;145.57;14.93;;;;;;;15.44;53.96;102111.63;5211987;28;20048;-73
2022/04/10 11:18:54;;;;;;;10.82;4.80;;;;;;;15.57;58.26;102117.38;5212407;28;20021;-72
2022/04/10 11:21:25;;;;;;;15.43;5.07;;;;;;;15.78;55.92;102115.03;5204682;28;20529;-72
2022/04/10 11:23:57;;;;;;;7.78;4.00;;;;;;;15.35;47.18;102107.19;5206550;28;20032;-72
2022/04/10 11:26:35;;;;;;;83.70;9.90;;;;;;;15.49;55.03;102110.09;5215567;28;20665;-73
2022/04/10 11:29:08;;;;;;;11.25;4.03;;;;;;;15.14;49.80;102115.78;5209107;28;20028;-72
2022/04/10 11:31:44;;;;;;;11.88;4.25;;;;;;;14.91;49.24;102115.53;5212538;28;20481;-73
2022/04/10 11:34:21;;;;;;;5.95;3.92;;;;;;;14.68;47.86;102108.03;5201531;28;20018;-74
2022/04/10 11:36:55;;;;;;;6.45;3.60;;;;;;;14.40;49.37;102112.75;5206274;28;20029;-74
2022/04/10 11:39:28;;;;;;;5.75;3.38;;;;;;;14.33;51.19;102117.13;5211217;28;20033;-74
2022/04/10 11:42:02;;;;;;;8.50;3.88;;;;;;;14.93;47.84;102111.69;5210950;28;20493;-73
2022/04/10 11:44:33;;;;;;;6.07;3.58;;;;;;;14.60;47.47;102107.16;5204140;28;20029;-72